Time;durP1;ratioP1;P1;durP2;ratioP2;P2;SDS_P1;SDS_P2;PMS_P1;PMS_P2;Temp;Humidity;BMP_temperature;BMP_pressure;BME280_temperature;BME280_humidity;BME280_pressure;Samples;Min_cycle;Max_cycle;Signal;HPM_P1;HPM_P2
2021/12/05 00:21:41;;;;;;;142.47;29.00;;;;;;;;;;5020356;28;20442;-96
2021/12/05 00:24:11;;;;;;;152.27;29.40;;;;;;;;;;5020115;28;20447;-96
2021/12/05 00:26:38;;;;;;;142.23;32.60;;;;;;;;;;5020513;28;20474;-96
2021/12/05 00:29:24;;;;;;;136.70;30.27;;;;;;;;;;5018993;28;20511;-96
2021/12/05 01:02:49;;;;;;;103.87;26.63;;;;;;;;;;5017981;28;20511;-96
2021/12/05 01:05:59;;;;;;;111.93;28.00;;;;;;;;;;5021974;28;20452;-96
2021/12/05 01:14:22;;;;;;;108.20;28.53;;;;;;;;;;5007228;28;20431;-96
2021/12/05 01:16:49;;;;;;;102.18;25.95;;;;;;;;;;5001548;28;20442;-96
2021/12/05 01:19:21;;;;;;;106.10;26.63;;;;;;;;;;5018450;28;20207;-96
2021/12/05 01:21:48;;;;;;;119.97;25.88;;;;;;;;;;5018341;28;20439;-96
2021/12/05 01:24:24;;;;;;;138.80;27.73;;;;;;;;;;5017635;28;20204;-95
2021/12/05 01:26:57;;;;;;;109.53;24.70;;;;;;;;;;5017815;28;20195;-96
2021/12/05 01:29:32;;;;;;;109.60;23.70;;;;;;;;;;5018749;28;20499;-96
2021/12/05 01:32:10;;;;;;;121.30;25.00;;;;;;;;;;5018844;28;20446;-95
2021/12/05 01:34:49;;;;;;;133.67;24.17;;;;;;;;;;5019401;28;20462;-95
2021/12/05 01:37:26;;;;;;;144.37;24.10;;;;;;;;;;5017831;28;20455;-95
2021/12/05 01:40:11;;;;;;;169.63;26.30;;;;;;;;;;5018246;28;20531;-96
2021/12/05 01:57:10;;;;;;;250.43;47.00;;;;;;;;;;5017724;28;20458;-95
2021/12/05 02:16:18;;;;;;;107.93;22.90;;;;;;;;;;4978495;28;20214;-96
2021/12/05 02:30:06;;;;;;;143.73;28.27;;;;;;;;;;5020493;28;20578;-95
2021/12/05 02:35:32;;;;;;;183.43;28.37;;;;;;;;;;5018907;28;20428;-96
2021/12/05 02:38:14;;;;;;;184.13;28.00;;;;;;;;;;4999153;28;20454;-96
2021/12/05 02:41:02;;;;;;;192.87;28.90;;;;;;;;;;5018056;28;20474;-96
2021/12/05 02:43:32;;;;;;;228.77;30.38;;;;;;;;;;5023170;28;20450;-96
2021/12/05 02:46:01;;;;;;;151.35;28.30;;;;;;;;;;5021850;28;20688;-96
2021/12/05 02:48:30;;;;;;;147.50;29.60;;;;;;;;;;5021713;28;20227;-96
2021/12/05 02:50:57;;;;;;;186.27;31.67;;;;;;;;;;5021430;28;20272;-96
2021/12/05 02:53:33;;;;;;;138.20;27.77;;;;;;;;;;5019861;28;20240;-96
2021/12/05 02:56:00;;;;;;;132.95;27.38;;;;;;;;;;5017608;28;20452;-96
2021/12/05 02:58:33;;;;;;;183.88;30.40;;;;;;;;;;5019071;28;21094;-96
2021/12/05 03:01:13;;;;;;;129.03;27.93;;;;;;;;;;5017853;28;20205;-96
2021/12/05 03:03:40;;;;;;;180.00;29.83;;;;;;;;;;5017676;28;20440;-96
2021/12/05 03:06:13;;;;;;;212.93;33.73;;;;;;;;;;5020776;28;20201;-96
2021/12/05 03:08:42;;;;;;;127.87;27.50;;;;;;;;;;5022674;28;20484;-96
2021/12/05 03:11:09;;;;;;;148.60;29.17;;;;;;;;;;5025715;28;20452;-96
2021/12/05 03:13:37;;;;;;;177.73;30.90;;;;;;;;;;5026690;28;20443;-96
2021/12/05 03:16:04;;;;;;;144.13;27.03;;;;;;;;;;5027529;28;20442;-96
2021/12/05 03:18:33;;;;;;;155.03;29.90;;;;;;;;;;5028942;28;20482;-96
2021/12/05 03:21:01;;;;;;;164.70;29.07;;;;;;;;;;5025387;28;20535;-96
2021/12/05 03:24:03;;;;;;;164.10;30.48;;;;;;;;;;5032779;28;20463;-94
2021/12/05 03:26:31;;;;;;;162.63;28.15;;;;;;;;;;5008290;28;20215;-96
2021/12/05 03:28:58;;;;;;;192.53;28.00;;;;;;;;;;5024236;28;20229;-96
2021/12/05 03:31:25;;;;;;;187.07;26.43;;;;;;;;;;5023028;28;20444;-96
2021/12/05 03:33:53;;;;;;;175.30;26.33;;;;;;;;;;5025037;28;20455;-96
2021/12/05 03:36:19;;;;;;;200.63;28.45;;;;;;;;;;5025724;28;20515;-96
2021/12/05 03:38:49;;;;;;;204.43;28.63;;;;;;;;;;5025691;28;20211;-96
2021/12/05 03:43:45;;;;;;;181.77;22.50;;;;;;;;;;5052092;28;20443;-96
2021/12/05 03:46:11;;;;;;;144.43;24.42;;;;;;;;;;5049519;28;20447;-96
2021/12/05 03:49:05;;;;;;;201.73;24.70;;;;;;;;;;5043520;28;20224;-96
2021/12/05 03:51:54;;;;;;;180.40;26.77;;;;;;;;;;5031060;28;20211;-96
2021/12/05 03:54:49;;;;;;;225.10;26.75;;;;;;;;;;5054238;28;20190;-96
2021/12/05 04:00:22;;;;;;;237.60;29.27;;;;;;;;;;5368903;22;21376;-96
2021/12/05 04:02:49;;;;;;;166.67;28.47;;;;;;;;;;5058216;28;20218;-96
2021/12/05 04:41:30;;;;;;;151.80;23.50;;;;;;;;;;6009445;22;20995;-96
2021/12/05 04:49:20;;;;;;;141.48;22.05;;;;;;;;;;6097188;23;21405;-96
2021/12/05 07:03:16;;;;;;;151.00;26.83;;;;;;;;;;5830580;23;22023;-96
2021/12/05 07:11:11;;;;;;;115.63;27.87;;;;;;;;;;5926901;23;21208;-96
2021/12/05 10:03:36;;;;;;;181.03;35.80;;;;;;;;;;4964698;28;20491;-96
2021/12/05 10:09:04;;;;;;;194.67;36.13;;;;;;;;;;4966367;28;20489;-96
2021/12/05 10:11:39;;;;;;;158.17;35.77;;;;;;;;;;4975023;28;20441;-96
2021/12/05 10:17:21;;;;;;;134.23;32.70;;;;;;;;;;4978718;28;20446;-96
2021/12/05 10:36:09;;;;;;;133.77;35.40;;;;;;;;;;4965244;28;20446;-96
2021/12/05 10:38:41;;;;;;;126.93;35.10;;;;;;;;;;4971512;28;20198;-96
2021/12/05 10:41:22;;;;;;;128.43;36.27;;;;;;;;;;4975203;28;20641;-96
2021/12/05 10:43:50;;;;;;;126.07;37.37;;;;;;;;;;4973800;28;20447;-96
2021/12/05 10:46:17;;;;;;;132.03;38.33;;;;;;;;;;4972674;28;20969;-96
2021/12/05 10:48:48;;;;;;;123.27;35.20;;;;;;;;;;4974433;28;20549;-96
2021/12/05 10:51:23;;;;;;;135.40;36.30;;;;;;;;;;4976959;28;20472;-96
2021/12/05 10:53:50;;;;;;;119.67;34.57;;;;;;;;;;4977098;28;20605;-96
2021/12/05 10:59:26;;;;;;;128.47;36.60;;;;;;;;;;4959897;28;20472;-95
2021/12/05 11:01:55;;;;;;;121.60;35.90;;;;;;;;;;4975066;28;20481;-96
2021/12/05 11:04:23;;;;;;;88.27;18.93;;;;;;;;;;5348479;23;20498;-96
2021/12/05 11:07:12;;;;;;;89.50;22.20;;;;;;;;;;4963631;28;20440;-96
2021/12/05 11:09:46;;;;;;;76.20;15.63;;;;;;;;;;4959059;29;20463;-95
2021/12/05 11:12:14;;;;;;;76.00;15.43;;;;;;;;;;4976244;28;20451;-95
2021/12/05 11:14:54;;;;;;;76.70;14.67;;;;;;;;;;4971915;28;20557;-96
2021/12/05 11:17:22;;;;;;;75.70;14.83;;;;;;;;;;4973230;28;20500;-95
2021/12/05 11:19:50;;;;;;;78.80;14.80;;;;;;;;;;4977245;28;20466;-92
2021/12/05 11:22:18;;;;;;;76.87;14.73;;;;;;;;;;4982334;28;20477;-96
2021/12/05 11:24:58;;;;;;;74.40;15.70;;;;;;;;;;4973818;28;20908;-96
2021/12/05 11:27:27;;;;;;;75.30;14.17;;;;;;;;;;4976166;28;20518;-94
2021/12/05 11:30:00;;;;;;;73.47;15.13;;;;;;;;;;4977283;28;20496;-94
2021/12/05 11:32:33;;;;;;;73.17;14.70;;;;;;;;;;4979298;28;20447;-90
2021/12/05 11:35:11;;;;;;;76.00;13.03;;;;;;;;;;4982833;28;20871;-94
2021/12/05 11:37:50;;;;;;;73.10;13.40;;;;;;;;;;4981633;28;20465;-94
2021/12/05 11:40:19;;;;;;;72.90;14.47;;;;;;;;;;4980491;23;20486;-91
2021/12/05 11:42:53;;;;;;;71.47;14.60;;;;;;;;;;4945157;29;20450;-92
2021/12/05 11:45:19;;;;;;;77.37;15.67;;;;;;;;;;4945941;29;20452;-96
2021/12/05 11:47:54;;;;;;;71.60;12.40;;;;;;;;;;4946424;29;20435;-95
2021/12/05 11:50:32;;;;;;;72.77;14.30;;;;;;;;;;4946934;29;20496;-96
2021/12/05 11:52:59;;;;;;;71.60;13.30;;;;;;;;;;4949203;29;20439;-93
2021/12/05 11:55:28;;;;;;;71.60;14.13;;;;;;;;;;4944647;29;20932;-93
2021/12/05 11:57:56;;;;;;;73.80;13.90;;;;;;;;;;4943011;29;20439;-95
2021/12/05 12:00:23;;;;;;;77.60;14.00;;;;;;;;;;4940868;29;20440;-96
2021/12/05 12:02:50;;;;;;;69.10;11.80;;;;;;;;;;4944144;29;20459;-91
2021/12/05 12:05:19;;;;;;;76.30;13.30;;;;;;;;;;4943675;29;20469;-91
2021/12/05 12:07:47;;;;;;;71.53;14.43;;;;;;;;;;4943273;29;20480;-95
2021/12/05 12:10:15;;;;;;;72.40;13.97;;;;;;;;;;4943995;28;20570;-96
2021/12/05 12:12:44;;;;;;;70.43;12.67;;;;;;;;;;4943609;29;20500;-94
2021/12/05 12:15:11;;;;;;;70.13;13.07;;;;;;;;;;4944214;29;20511;-94
2021/12/05 12:17:38;;;;;;;73.43;12.97;;;;;;;;;;4942765;29;21225;-94
2021/12/05 12:20:06;;;;;;;77.33;14.37;;;;;;;;;;4940754;29;20480;-95
2021/12/05 12:22:33;;;;;;;74.87;14.23;;;;;;;;;;4941535;29;20448;-92
2021/12/05 12:25:01;;;;;;;74.40;13.90;;;;;;;;;;4943977;29;20459;-94
2021/12/05 12:27:28;;;;;;;73.20;13.00;;;;;;;;;;4941071;29;20963;-93
2021/12/05 12:29:58;;;;;;;68.70;12.83;;;;;;;;;;4941824;29;20549;-92
2021/12/05 12:32:27;;;;;;;73.67;14.30;;;;;;;;;;4942778;29;20451;-92
2021/12/05 12:34:59;;;;;;;73.83;12.23;;;;;;;;;;4943512;29;20507;-94
2021/12/05 12:37:31;;;;;;;73.03;12.50;;;;;;;;;;4946075;29;20472;-95
2021/12/05 12:40:07;;;;;;;68.90;12.87;;;;;;;;;;4942355;29;20533;-95
2021/12/05 12:42:38;;;;;;;71.33;12.80;;;;;;;;;;4943387;29;21071;-92
2021/12/05 12:45:11;;;;;;;72.90;13.23;;;;;;;;;;4942172;29;20456;-96
2021/12/05 12:47:38;;;;;;;76.63;13.10;;;;;;;;;;4943228;29;20523;-92
2021/12/05 12:50:22;;;;;;;73.57;13.77;;;;;;;;;;4942399;29;20479;-96
2021/12/05 12:52:59;;;;;;;71.23;12.83;;;;;;;;;;4939659;29;20466;-92
2021/12/05 12:55:30;;;;;;;69.47;13.50;;;;;;;;;;4946784;29;20440;-96
2021/12/05 12:57:56;;;;;;;72.93;13.30;;;;;;;;;;4942427;29;20862;-92
2021/12/05 13:00:27;;;;;;;68.97;13.03;;;;;;;;;;4940115;29;20463;-96
2021/12/05 13:02:58;;;;;;;68.87;12.87;;;;;;;;;;4938850;29;20554;-93
2021/12/05 13:05:40;;;;;;;71.60;13.50;;;;;;;;;;4942132;29;20904;-93
2021/12/05 13:10:54;;;;;;;72.30;13.80;;;;;;;;;;4941094;29;20535;-95
2021/12/05 13:13:23;;;;;;;67.97;13.00;;;;;;;;;;4937496;29;21625;-94
2021/12/05 13:15:53;;;;;;;68.83;13.00;;;;;;;;;;4940752;29;20499;-95
2021/12/05 13:18:26;;;;;;;68.80;12.97;;;;;;;;;;4941696;29;20443;-94
2021/12/05 13:20:56;;;;;;;74.57;13.90;;;;;;;;;;4942455;29;20459;-93
2021/12/05 13:23:28;;;;;;;69.90;13.23;;;;;;;;;;4941525;29;20475;-94
2021/12/05 13:28:30;;;;;;;72.30;13.40;;;;;;;;;;4936032;29;20534;-94
2021/12/05 13:31:32;;;;;;;68.73;13.10;;;;;;;;;;4940807;29;20499;-96
2021/12/05 13:34:13;;;;;;;71.30;13.43;;;;;;;;;;4942661;29;20439;-96
2021/12/05 13:36:40;;;;;;;73.40;14.43;;;;;;;;;;4940479;29;20547;-92
2021/12/05 13:39:28;;;;;;;70.50;13.30;;;;;;;;;;4941174;29;20451;-93
2021/12/05 13:42:00;;;;;;;71.93;14.47;;;;;;;;;;4938199;29;20451;-92
2021/12/05 13:44:56;;;;;;;72.30;13.80;;;;;;;;;;4943754;29;20448;-93
2021/12/05 13:47:29;;;;;;;73.03;13.23;;;;;;;;;;4939516;29;20507;-92
2021/12/05 13:49:56;;;;;;;73.23;12.90;;;;;;;;;;4942119;29;20531;-92
2021/12/05 13:52:30;;;;;;;70.60;13.40;;;;;;;;;;4941704;29;20538;-94
2021/12/05 13:55:11;;;;;;;75.47;13.50;;;;;;;;;;4944551;29;20472;-94
2021/12/05 13:57:38;;;;;;;71.97;14.67;;;;;;;;;;4982998;23;20493;-96
2021/12/05 14:00:05;;;;;;;75.50;14.87;;;;;;;;;;4968170;28;20458;-95
2021/12/05 14:02:46;;;;;;;76.77;14.27;;;;;;;;;;4968860;28;20504;-96
2021/12/05 14:05:28;;;;;;;71.87;14.83;;;;;;;;;;4974479;28;20415;-92
2021/12/05 14:07:58;;;;;;;69.50;13.83;;;;;;;;;;4970979;28;20478;-95
2021/12/05 14:10:25;;;;;;;70.37;14.40;;;;;;;;;;4974643;28;20517;-95
2021/12/05 14:12:51;;;;;;;72.37;13.90;;;;;;;;;;4977205;28;20457;-94
2021/12/05 14:15:18;;;;;;;80.83;14.43;;;;;;;;;;4977178;28;20449;-95
2021/12/05 14:20:11;;;;;;;72.50;13.90;;;;;;;;;;4963981;23;20534;-95
2021/12/05 14:22:41;;;;;;;76.10;15.47;;;;;;;;;;4956862;29;20199;-95
2021/12/05 14:25:09;;;;;;;69.00;13.97;;;;;;;;;;4971582;28;20450;-92
2021/12/05 14:27:36;;;;;;;78.00;14.10;;;;;;;;;;4968705;28;20455;-92
2021/12/05 14:30:04;;;;;;;72.07;13.50;;;;;;;;;;4972278;28;20489;-93
2021/12/05 14:32:32;;;;;;;75.10;14.57;;;;;;;;;;4970080;28;20453;-96
2021/12/05 14:35:01;;;;;;;76.30;14.50;;;;;;;;;;4972845;28;20462;-95
2021/12/05 14:37:33;;;;;;;76.23;14.90;;;;;;;;;;4972450;28;20437;-93
2021/12/05 14:40:03;;;;;;;75.57;15.93;;;;;;;;;;4974314;28;20458;-95
2021/12/05 14:42:32;;;;;;;74.70;14.13;;;;;;;;;;4972048;28;20448;-94
2021/12/05 14:45:00;;;;;;;77.37;15.30;;;;;;;;;;4970372;28;20437;-93
2021/12/05 14:47:28;;;;;;;77.03;14.60;;;;;;;;;;4971867;28;20445;-91
2021/12/05 14:49:56;;;;;;;76.30;14.40;;;;;;;;;;4973867;28;20452;-95
2021/12/05 14:52:23;;;;;;;72.73;14.60;;;;;;;;;;4971640;28;20836;-92
2021/12/05 14:54:53;;;;;;;76.60;14.90;;;;;;;;;;4971724;28;20448;-94
2021/12/05 14:57:22;;;;;;;74.50;15.33;;;;;;;;;;4971827;28;20509;-96
2021/12/05 14:59:50;;;;;;;76.20;14.73;;;;;;;;;;4972214;28;20449;-94
2021/12/05 15:02:17;;;;;;;75.00;15.50;;;;;;;;;;4972041;28;20481;-93
2021/12/05 15:04:44;;;;;;;80.23;16.87;;;;;;;;;;4972645;28;20555;-94
2021/12/05 15:07:11;;;;;;;74.30;15.40;;;;;;;;;;4970592;28;20496;-94
2021/12/05 15:09:39;;;;;;;77.20;15.13;;;;;;;;;;4971984;28;20485;-93
2021/12/05 15:12:08;;;;;;;73.17;15.20;;;;;;;;;;4972842;28;20492;-93
2021/12/05 15:14:36;;;;;;;78.17;15.40;;;;;;;;;;4974649;28;20606;-95
2021/12/05 15:17:05;;;;;;;77.63;15.30;;;;;;;;;;4975471;28;20476;-92
2021/12/05 15:19:31;;;;;;;75.93;16.07;;;;;;;;;;4972133;28;20561;-93
2021/12/05 15:21:58;;;;;;;76.43;16.77;;;;;;;;;;4971872;28;20861;-92
2021/12/05 15:24:28;;;;;;;74.93;15.60;;;;;;;;;;4973411;28;20470;-93
2021/12/05 15:26:55;;;;;;;82.20;16.90;;;;;;;;;;4973097;28;20476;-91
2021/12/05 15:29:22;;;;;;;83.23;16.83;;;;;;;;;;4973645;28;20440;-94
2021/12/05 15:31:50;;;;;;;75.00;16.43;;;;;;;;;;4973204;28;20517;-91
2021/12/05 15:34:24;;;;;;;80.30;16.17;;;;;;;;;;4975016;28;20459;-93
2021/12/05 15:36:51;;;;;;;85.20;20.40;;;;;;;;;;4973833;28;20454;-95
2021/12/05 15:39:19;;;;;;;89.77;23.27;;;;;;;;;;4973606;28;20458;-94
2021/12/05 15:41:47;;;;;;;86.27;22.27;;;;;;;;;;4974953;28;20461;-92
2021/12/05 15:44:23;;;;;;;80.10;17.40;;;;;;;;;;4973048;28;20448;-94
2021/12/05 15:46:51;;;;;;;76.07;15.40;;;;;;;;;;4972642;28;20449;-91
2021/12/05 15:49:17;;;;;;;77.00;15.47;;;;;;;;;;4973523;28;20458;-90
2021/12/05 15:51:48;;;;;;;79.30;16.30;;;;;;;;;;4979301;23;20533;-92
2021/12/05 15:54:15;;;;;;;73.57;15.40;;;;;;;;;;4952996;29;20508;-96
2021/12/05 15:56:42;;;;;;;74.73;14.90;;;;;;;;;;4963132;28;20443;-95
2021/12/05 15:59:17;;;;;;;77.17;15.50;;;;;;;;;;4974985;28;20462;-95
2021/12/05 16:01:44;;;;;;;73.80;13.33;;;;;;;;;;4973442;28;20514;-93
2021/12/05 16:04:20;;;;;;;73.23;14.50;;;;;;;;;;4973474;28;20447;-90
2021/12/05 16:06:46;;;;;;;72.57;15.23;;;;;;;;;;4973396;28;20470;-95
2021/12/05 16:09:14;;;;;;;73.93;14.10;;;;;;;;;;4972974;28;20440;-93
2021/12/05 16:11:41;;;;;;;72.80;12.83;;;;;;;;;;4973009;28;20484;-95
2021/12/05 16:14:07;;;;;;;72.30;14.90;;;;;;;;;;4974782;28;20456;-93
2021/12/05 16:16:34;;;;;;;74.83;14.40;;;;;;;;;;4973087;28;20456;-95
2021/12/05 16:19:02;;;;;;;74.47;14.30;;;;;;;;;;4971556;28;20444;-94
2021/12/05 16:21:31;;;;;;;70.77;13.70;;;;;;;;;;4969038;28;20940;-92
2021/12/05 16:24:04;;;;;;;74.30;14.00;;;;;;;;;;4972510;28;20452;-94
2021/12/05 16:26:31;;;;;;;78.30;14.53;;;;;;;;;;4974166;28;20441;-94
2021/12/05 16:28:59;;;;;;;76.83;14.40;;;;;;;;;;4972937;28;20456;-91
2021/12/05 16:31:27;;;;;;;81.00;15.47;;;;;;;;;;4971195;28;20493;-94
2021/12/05 16:33:56;;;;;;;80.60;15.17;;;;;;;;;;4971340;28;20460;-94
2021/12/05 16:36:28;;;;;;;75.70;15.60;;;;;;;;;;4972339;28;20441;-93
2021/12/05 16:38:56;;;;;;;74.57;15.00;;;;;;;;;;4971423;28;20449;-89
2021/12/05 16:41:25;;;;;;;71.10;14.43;;;;;;;;;;4971456;28;20488;-90
2021/12/05 16:43:57;;;;;;;76.33;15.00;;;;;;;;;;4970160;28;20504;-91
2021/12/05 16:46:25;;;;;;;72.60;14.93;;;;;;;;;;4970190;28;20463;-90
2021/12/05 16:48:52;;;;;;;77.13;15.43;;;;;;;;;;4970124;28;20491;-93
2021/12/05 16:51:23;;;;;;;76.93;15.87;;;;;;;;;;4970575;28;20495;-94
2021/12/05 16:53:52;;;;;;;78.33;16.77;;;;;;;;;;4971884;28;20523;-96
2021/12/05 16:59:18;;;;;;;74.67;15.10;;;;;;;;;;5125732;27;1326672;-93
2021/12/05 17:01:46;;;;;;;76.10;16.30;;;;;;;;;;5147171;27;20440;-94
2021/12/05 17:04:13;;;;;;;75.60;16.93;;;;;;;;;;5145872;27;20437;-94
2021/12/05 17:06:47;;;;;;;82.30;17.33;;;;;;;;;;5145119;27;20475;-94
2021/12/05 17:09:14;;;;;;;83.50;17.03;;;;;;;;;;5145106;27;20659;-94
2021/12/05 17:11:42;;;;;;;76.17;16.23;;;;;;;;;;5148418;27;20442;-94
2021/12/05 17:14:18;;;;;;;77.40;16.27;;;;;;;;;;5151414;27;20496;-96
2021/12/05 17:17:01;;;;;;;73.87;16.10;;;;;;;;;;5159005;27;20440;-96
2021/12/05 17:19:30;;;;;;;77.63;16.30;;;;;;;;;;5153310;27;20453;-96
2021/12/05 17:21:57;;;;;;;76.37;16.57;;;;;;;;;;5196666;22;21111;-95
2021/12/05 17:24:25;;;;;;;78.83;17.27;;;;;;;;;;5119535;28;20437;-96
2021/12/05 17:26:53;;;;;;;80.10;17.03;;;;;;;;;;5118472;28;20490;-93
2021/12/05 17:29:20;;;;;;;76.17;16.47;;;;;;;;;;5118970;28;20444;-93
2021/12/05 17:31:49;;;;;;;76.23;16.57;;;;;;;;;;5117131;28;20448;-94
2021/12/05 17:34:21;;;;;;;80.20;18.20;;;;;;;;;;5118569;28;20447;-96
2021/12/05 17:37:01;;;;;;;78.00;16.87;;;;;;;;;;5130464;28;20442;-96
2021/12/05 17:39:32;;;;;;;81.50;16.60;;;;;;;;;;5143762;22;20469;-96
2021/12/05 17:42:00;;;;;;;77.80;16.87;;;;;;;;;;5107897;22;20502;-96
2021/12/05 17:44:51;;;;;;;76.87;17.37;;;;;;;;;;5124556;22;20507;-96
2021/12/05 17:47:23;;;;;;;75.57;14.53;;;;;;;;;;5101197;28;20435;-96
2021/12/05 17:52:38;;;;;;;74.60;15.43;;;;;;;;;;5086631;28;20436;-96
2021/12/05 17:55:13;;;;;;;72.97;14.63;;;;;;;;;;5088382;28;20471;-94
2021/12/05 17:57:43;;;;;;;74.83;15.17;;;;;;;;;;5090346;28;20970;-95
2021/12/05 18:00:15;;;;;;;73.43;15.17;;;;;;;;;;5090945;28;20455;-94
2021/12/05 18:02:45;;;;;;;76.43;15.07;;;;;;;;;;5168640;22;20512;-94
2021/12/05 18:05:14;;;;;;;73.20;15.30;;;;;;;;;;5137246;28;20466;-94
2021/12/05 18:07:47;;;;;;;74.37;14.87;;;;;;;;;;5141395;27;20893;-96
2021/12/05 18:10:22;;;;;;;75.30;14.27;;;;;;;;;;5129000;22;20563;-96
2021/12/05 18:12:50;;;;;;;79.00;13.90;;;;;;;;;;5115617;28;20444;-93
2021/12/05 18:15:22;;;;;;;73.87;14.33;;;;;;;;;;5177450;22;20491;-95
2021/12/05 18:17:50;;;;;;;74.83;15.30;;;;;;;;;;5120136;28;20523;-93
2021/12/05 18:20:19;;;;;;;74.50;15.30;;;;;;;;;;5111417;28;20446;-96
2021/12/05 18:22:49;;;;;;;76.57;15.50;;;;;;;;;;5114695;28;20481;-96
2021/12/05 18:25:15;;;;;;;82.60;17.27;;;;;;;;;;5114877;28;20446;-95
2021/12/05 18:27:42;;;;;;;74.23;16.13;;;;;;;;;;5111155;28;20472;-96
2021/12/05 18:30:11;;;;;;;81.57;17.17;;;;;;;;;;5123424;28;20463;-96
2021/12/05 18:32:38;;;;;;;77.87;17.67;;;;;;;;;;5118753;28;20435;-96
2021/12/05 18:35:07;;;;;;;86.40;16.97;;;;;;;;;;5114394;28;20445;-95
2021/12/05 18:37:33;;;;;;;78.27;16.63;;;;;;;;;;5110304;28;20473;-96
2021/12/05 18:40:04;;;;;;;77.17;16.70;;;;;;;;;;5120250;28;20449;-96
2021/12/05 18:42:31;;;;;;;80.00;17.63;;;;;;;;;;5120786;28;20449;-96
2021/12/05 18:45:01;;;;;;;79.30;18.03;;;;;;;;;;5115476;28;20430;-93
2021/12/05 18:47:28;;;;;;;79.30;18.93;;;;;;;;;;5116343;28;20451;-96
2021/12/05 18:49:55;;;;;;;77.83;17.57;;;;;;;;;;5089053;28;20438;-96
2021/12/05 18:52:23;;;;;;;77.67;18.13;;;;;;;;;;5111640;28;20463;-93
2021/12/05 18:54:50;;;;;;;74.70;17.60;;;;;;;;;;5104375;22;20496;-95
2021/12/05 19:00:20;;;;;;;81.37;18.03;;;;;;;;;;5073853;28;20486;-95
2021/12/05 19:05:35;;;;;;;80.20;18.30;;;;;;;;;;5220222;22;20493;-92
2021/12/05 19:08:18;;;;;;;87.33;20.60;;;;;;;;;;5096829;28;20522;-93
2021/12/05 19:13:33;;;;;;;84.20;21.53;;;;;;;;;;5098686;28;20453;-95
2021/12/05 19:16:13;;;;;;;85.17;21.23;;;;;;;;;;5100032;28;20448;-95
2021/12/05 19:18:43;;;;;;;96.40;22.80;;;;;;;;;;5096629;28;20462;-95
2021/12/05 19:21:09;;;;;;;84.93;22.03;;;;;;;;;;5095434;28;20435;-96
2021/12/05 19:23:53;;;;;;;88.77;22.00;;;;;;;;;;5099050;28;20902;-96
2021/12/05 19:29:08;;;;;;;86.13;21.67;;;;;;;;;;5070631;28;20534;-96
2021/12/05 19:31:35;;;;;;;84.70;21.77;;;;;;;;;;5078692;28;20456;-96
2021/12/05 19:34:20;;;;;;;89.13;21.57;;;;;;;;;;5073371;28;20513;-96
2021/12/05 19:36:47;;;;;;;85.60;21.20;;;;;;;;;;5079473;28;20444;-95
2021/12/05 19:42:01;;;;;;;85.40;21.70;;;;;;;;;;5065972;28;20450;-95
2021/12/05 19:44:28;;;;;;;87.37;22.10;;;;;;;;;;5066808;28;20443;-96
2021/12/05 19:46:58;;;;;;;82.87;20.87;;;;;;;;;;5072653;28;20447;-95
2021/12/05 19:55:02;;;;;;;83.00;20.57;;;;;;;;;;5107827;28;20454;-95
2021/12/05 19:57:31;;;;;;;78.47;18.17;;;;;;;;;;5099988;28;20450;-96
2021/12/05 19:59:58;;;;;;;85.00;20.00;;;;;;;;;;5104703;28;20535;-95
2021/12/05 20:02:25;;;;;;;82.50;18.37;;;;;;;;;;5107075;22;20502;-96
2021/12/05 20:05:17;;;;;;;88.60;18.90;;;;;;;;;;5142385;22;20501;-95
2021/12/05 20:07:45;;;;;;;84.30;19.00;;;;;;;;;;5148927;22;20531;-96
2021/12/05 20:12:58;;;;;;;80.07;18.33;;;;;;;;;;5098006;28;20440;-93
2021/12/05 20:15:25;;;;;;;81.40;17.70;;;;;;;;;;5121669;28;20441;-96
2021/12/05 20:17:55;;;;;;;79.67;18.20;;;;;;;;;;5121935;28;20434;-96
2021/12/05 20:20:22;;;;;;;78.30;18.93;;;;;;;;;;5126507;28;20426;-96
2021/12/05 20:22:50;;;;;;;81.60;17.53;;;;;;;;;;5124337;28;20516;-95
2021/12/05 20:25:19;;;;;;;78.10;17.40;;;;;;;;;;5127443;28;20445;-96
2021/12/05 20:27:46;;;;;;;76.97;16.47;;;;;;;;;;5123023;28;20441;-96
2021/12/05 20:30:18;;;;;;;78.17;17.30;;;;;;;;;;5128169;28;20450;-94
2021/12/05 20:32:55;;;;;;;76.60;16.97;;;;;;;;;;5125012;28;20446;-96
2021/12/05 20:35:41;;;;;;;75.73;16.50;;;;;;;;;;5136324;22;20472;-96
2021/12/05 20:38:25;;;;;;;78.53;17.03;;;;;;;;;;5106327;22;20503;-96
2021/12/05 20:45:51;;;;;;;74.20;15.60;;;;;;;;;;5128645;28;20473;-94
2021/12/05 20:48:21;;;;;;;73.23;15.30;;;;;;;;;;5264528;22;21307;-96
2021/12/05 20:50:52;;;;;;;77.07;15.80;;;;;;;;;;5117687;22;20465;31
2021/12/05 20:53:21;;;;;;;78.40;16.20;;;;;;;;;;5030887;28;20447;-96
2021/12/05 20:55:48;;;;;;;74.13;14.73;;;;;;;;;;5036231;28;20460;-96
2021/12/05 20:58:16;;;;;;;71.80;14.37;;;;;;;;;;5036028;28;20475;-96
2021/12/05 21:00:48;;;;;;;73.87;15.13;;;;;;;;;;5036014;28;20446;-96
2021/12/05 21:03:19;;;;;;;74.00;15.23;;;;;;;;;;5029535;28;20449;-96
2021/12/05 21:05:47;;;;;;;73.70;15.17;;;;;;;;;;5014568;28;20476;-94
2021/12/05 21:08:18;;;;;;;73.27;15.17;;;;;;;;;;5035678;28;20500;-94
2021/12/05 21:10:46;;;;;;;74.93;14.73;;;;;;;;;;5031548;28;20451;-94
2021/12/05 21:13:14;;;;;;;73.53;14.30;;;;;;;;;;5032601;28;20451;-93
2021/12/05 21:15:42;;;;;;;72.00;13.57;;;;;;;;;;5037040;28;20446;-92
2021/12/05 21:18:22;;;;;;;74.87;14.90;;;;;;;;;;5036132;28;20483;-95
2021/12/05 21:21:08;;;;;;;73.10;14.50;;;;;;;;;;5025981;28;20440;-95
2021/12/05 21:23:38;;;;;;;75.27;14.33;;;;;;;;;;5067275;22;20511;-96
2021/12/05 21:26:05;;;;;;;74.97;15.00;;;;;;;;;;5068918;28;20991;-93
2021/12/05 21:28:32;;;;;;;76.00;14.43;;;;;;;;;;5069417;28;20448;-96
2021/12/05 21:30:59;;;;;;;73.00;14.87;;;;;;;;;;5065254;28;20501;-94
2021/12/05 21:33:27;;;;;;;72.97;14.77;;;;;;;;;;5065448;28;20486;-96
2021/12/05 21:38:42;;;;;;;73.03;14.57;;;;;;;;;;5096118;22;20548;-96
2021/12/05 21:41:09;;;;;;;73.80;13.83;;;;;;;;;;5091897;28;20447;-96
2021/12/05 21:46:24;;;;;;;72.37;14.33;;;;;;;;;;5109352;28;20461;-95
2021/12/05 21:48:52;;;;;;;70.10;14.20;;;;;;;;;;5092944;28;20911;-94
2021/12/05 21:54:22;;;;;;;73.77;15.33;;;;;;;;;;5095904;28;20423;-90
2021/12/05 21:56:49;;;;;;;76.23;13.87;;;;;;;;;;5092392;28;20439;-96
2021/12/05 21:59:15;;;;;;;72.40;15.13;;;;;;;;;;5095282;28;20550;-93
2021/12/05 22:01:42;;;;;;;71.20;14.63;;;;;;;;;;5094393;28;20475;-93
2021/12/05 22:04:10;;;;;;;72.40;15.13;;;;;;;;;;5094107;28;20475;-94
2021/12/05 22:06:36;;;;;;;71.37;14.30;;;;;;;;;;5091968;28;20442;-94
2021/12/05 22:09:08;;;;;;;72.73;13.23;;;;;;;;;;5093961;28;20444;-96
2021/12/05 22:11:35;;;;;;;74.00;14.10;;;;;;;;;;5092290;28;20444;-91
2021/12/05 22:14:01;;;;;;;74.97;14.80;;;;;;;;;;5093538;28;20439;-95
2021/12/05 22:16:28;;;;;;;73.87;15.10;;;;;;;;;;5089299;28;20470;-94
2021/12/05 22:18:55;;;;;;;74.43;14.40;;;;;;;;;;5085997;28;20481;-93
2021/12/05 22:21:29;;;;;;;71.50;13.90;;;;;;;;;;5089531;28;20455;-94
2021/12/05 22:23:56;;;;;;;70.97;14.27;;;;;;;;;;5086992;28;20530;-91
2021/12/05 22:26:24;;;;;;;74.17;14.63;;;;;;;;;;5092189;28;20453;-95
2021/12/05 22:28:52;;;;;;;76.73;14.33;;;;;;;;;;5091997;28;20447;-94
2021/12/05 22:31:29;;;;;;;72.97;15.13;;;;;;;;;;5089880;28;20419;-93
2021/12/05 22:33:56;;;;;;;72.47;13.77;;;;;;;;;;5090542;28;20469;-95
2021/12/05 22:36:24;;;;;;;70.30;13.60;;;;;;;;;;5090186;28;20489;-91
2021/12/05 22:38:51;;;;;;;73.03;13.27;;;;;;;;;;5087853;28;20488;-96
2021/12/05 22:41:19;;;;;;;72.90;14.30;;;;;;;;;;5092153;28;20493;-95
2021/12/05 22:43:46;;;;;;;73.53;14.43;;;;;;;;;;5091694;28;20451;-95
2021/12/05 22:46:13;;;;;;;74.63;13.97;;;;;;;;;;5089768;28;20444;-91
2021/12/05 22:48:40;;;;;;;71.23;13.73;;;;;;;;;;5090890;28;21186;-95
2021/12/05 22:51:07;;;;;;;71.80;14.83;;;;;;;;;;5090316;28;20450;-91
2021/12/05 22:53:35;;;;;;;76.13;13.30;;;;;;;;;;5094995;28;20444;-91
2021/12/05 22:56:02;;;;;;;72.30;14.10;;;;;;;;;;5091057;28;20469;-94
2021/12/05 22:58:29;;;;;;;70.77;14.30;;;;;;;;;;5085868;28;20449;-94
2021/12/05 23:00:58;;;;;;;72.37;14.60;;;;;;;;;;5090467;28;20554;-95
2021/12/05 23:03:26;;;;;;;71.37;13.03;;;;;;;;;;5089546;28;20482;-93
2021/12/05 23:05:53;;;;;;;71.60;13.90;;;;;;;;;;5094038;28;20435;-94
2021/12/05 23:08:20;;;;;;;72.07;14.23;;;;;;;;;;5092215;28;20498;-94
2021/12/05 23:10:48;;;;;;;70.17;13.80;;;;;;;;;;5092276;28;20943;-95
2021/12/05 23:13:15;;;;;;;71.60;14.17;;;;;;;;;;5090674;28;20494;-96
2021/12/05 23:15:42;;;;;;;71.70;13.63;;;;;;;;;;5087247;28;20508;-93
2021/12/05 23:18:08;;;;;;;71.80;14.60;;;;;;;;;;5087583;28;20449;-90
2021/12/05 23:20:35;;;;;;;75.07;14.97;;;;;;;;;;5088566;28;20549;-93
2021/12/05 23:23:02;;;;;;;70.37;13.60;;;;;;;;;;5091331;28;20451;-96
2021/12/05 23:25:35;;;;;;;71.73;13.30;;;;;;;;;;5089007;28;20458;-94